Time;durP1;ratioP1;P1;durP2;ratioP2;P2;SDS_P1;SDS_P2;PMS_P1;PMS_P2;Temp;Humidity;BMP_temperature;BMP_pressure;BME280_temperature;BME280_humidity;BME280_pressure;Samples;Min_cycle;Max_cycle;Signal;HPM_P1;HPM_P2
2021/12/21 00:00:51;;;;;;;28.15;12.63;;;-1.60;99.90;;;;;;4973593;28;20053;-78
2021/12/21 00:03:17;;;;;;;34.22;13.32;;;-1.70;99.90;;;;;;4975489;28;20220;-78
2021/12/21 00:05:43;;;;;;;23.63;13.10;;;-1.70;99.90;;;;;;4974275;28;20102;-77
2021/12/21 00:08:15;;;;;;;23.75;12.68;;;-1.80;99.90;;;;;;4974027;28;20089;-78
2021/12/21 00:10:44;;;;;;;23.90;12.70;;;-1.80;99.90;;;;;;4975276;28;20042;-79
2021/12/21 00:13:24;;;;;;;23.50;12.25;;;-1.80;99.90;;;;;;4975186;28;20258;-78
2021/12/21 00:18:27;;;;;;;;;;;-1.90;99.90;;;;;;4975629;28;20028;-78
2021/12/21 00:26:22;;;;;;;25.63;11.85;;;-2.00;99.90;;;;;;4938268;28;20378;-79
2021/12/21 00:31:17;;;;;;;23.92;10.73;;;-2.00;99.90;;;;;;4937291;28;20051;-76
2021/12/21 00:33:49;;;;;;;25.65;11.65;;;-2.10;99.90;;;;;;4955762;29;20047;-78
2021/12/21 00:36:17;;;;;;;22.90;11.77;;;-2.10;99.90;;;;;;4938086;28;20042;-77
2021/12/21 00:38:47;;;;;;;25.52;11.35;;;-2.20;99.90;;;;;;4955795;29;20081;-77
2021/12/21 00:41:14;;;;;;;23.02;10.57;;;-2.20;99.90;;;;;;4955569;29;20058;-77
2021/12/21 00:43:42;;;;;;;26.63;11.68;;;-2.20;99.90;;;;;;4955439;29;20070;-77
2021/12/21 00:46:08;;;;;;;;;;;-2.30;99.90;;;;;;4955853;28;20043;-77
2021/12/21 00:48:35;;;;;;;22.80;11.02;;;-2.30;99.90;;;;;;4955541;29;20192;-77
2021/12/21 00:51:03;;;;;;;27.45;12.30;;;-2.20;99.90;;;;;;4955312;29;20043;-77
2021/12/21 00:53:29;;;;;;;;;;;-2.30;99.90;;;;;;4939489;29;20090;-77
2021/12/21 00:55:55;;;;;;;30.30;12.50;;;-2.20;99.90;;;;;;4939015;29;19915;-77
2021/12/21 00:58:21;;;;;;;23.63;12.38;;;-2.20;99.90;;;;;;4956166;29;20034;-79
2021/12/21 01:00:50;;;;;;;26.13;12.05;;;-2.20;99.90;;;;;;4937888;28;20297;-76
2021/12/21 01:03:17;;;;;;;23.00;12.05;;;-2.20;99.90;;;;;;4937373;29;20066;-77
2021/12/21 01:05:52;;;;;;;26.13;12.50;;;-2.20;99.90;;;;;;4955475;28;20035;-79
2021/12/21 01:08:22;;;;;;;24.85;11.20;;;-2.30;99.90;;;;;;4955637;29;20503;-77
2021/12/21 01:11:12;;;;;;;23.38;11.43;;;-2.30;99.90;;;;;;4949719;28;20034;-78
2021/12/21 01:16:20;;;;;;;26.27;12.75;;;-2.30;99.90;;;;;;4936060;28;20334;-78
2021/12/21 01:21:50;;;;;;;25.75;11.80;;;-2.20;99.90;;;;;;4942065;28;20039;-78
2021/12/21 01:29:46;;;;;;;26.75;11.48;;;-2.30;99.90;;;;;;4947290;29;20043;-77
2021/12/21 01:35:28;;;;;;;25.63;11.20;;;-2.40;99.90;;;;;;4940048;29;20100;-77
2021/12/21 01:37:49;;;;;;;22.42;11.15;;;-2.50;99.90;;;;;;4936709;28;20054;-76
2021/12/21 01:43:10;;;;;;;24.95;10.63;;;-2.50;99.90;;;;;;4939156;29;20226;-77
2021/12/21 01:51:09;;;;;;;25.90;11.18;;;-2.60;99.90;;;;;;4938198;29;20035;-78
2021/12/21 01:53:35;;;;;;;22.70;11.32;;;-2.50;99.90;;;;;;4939758;29;20030;-77
2021/12/21 01:56:02;;;;;;;26.83;11.73;;;-2.70;99.90;;;;;;4953450;29;20038;-78
2021/12/21 01:58:28;;;;;;;21.52;10.93;;;-2.50;99.90;;;;;;4937691;29;20103;-79
2021/12/21 02:00:55;;;;;;;24.58;10.43;;;-2.60;99.90;;;;;;4960375;28;20062;-77
2021/12/21 02:03:20;;;;;;;23.95;11.05;;;-2.50;99.90;;;;;;4988403;28;20115;-77
2021/12/21 02:05:49;;;;;;;20.75;10.10;;;-2.60;99.90;;;;;;4956687;28;20245;-80
2021/12/21 02:08:21;;;;;;;20.92;10.32;;;-2.60;99.90;;;;;;4956850;29;20095;-79
2021/12/21 02:10:47;;;;;;;20.00;8.98;;;-2.60;99.90;;;;;;4967842;28;20035;-80
2021/12/21 02:13:12;;;;;;;19.60;10.07;;;-2.70;99.90;;;;;;5059539;28;20035;-78
2021/12/21 02:15:47;;;;;;;19.70;9.70;;;-2.60;99.90;;;;;;5069261;28;20047;-78
2021/12/21 02:21:29;;;;;;;26.02;11.10;;;-2.70;99.90;;;;;;4976754;28;20041;-78
2021/12/21 02:23:56;;;;;;;20.67;9.52;;;-2.70;99.90;;;;;;4977348;28;20318;-78
2021/12/21 02:29:16;;;;;;;19.75;9.75;;;-2.80;99.90;;;;;;4994287;28;20145;-78
2021/12/21 02:31:48;;;;;;;20.83;10.05;;;-2.80;99.90;;;;;;4961578;28;20034;-78
2021/12/21 02:34:20;;;;;;;19.17;10.18;;;-2.70;99.90;;;;;;4977350;28;20112;-78
2021/12/21 02:36:49;;;;;;;21.27;10.13;;;-2.70;99.90;;;;;;4978387;28;20054;-78
2021/12/21 02:39:17;;;;;;;19.17;9.65;;;-2.70;99.90;;;;;;4976392;28;20026;-78
2021/12/21 02:41:44;;;;;;;23.88;9.82;;;-2.70;99.90;;;;;;4977762;28;20297;-79
2021/12/21 02:44:13;;;;;;;21.05;10.38;;;-2.70;99.90;;;;;;4976671;28;20225;-78
2021/12/21 02:46:40;;;;;;;18.50;9.20;;;-2.70;99.90;;;;;;4976957;28;20037;-77
2021/12/21 02:49:09;;;;;;;20.65;9.50;;;-2.70;99.90;;;;;;4975151;28;20027;-78
2021/12/21 02:51:40;;;;;;;20.27;9.98;;;-2.80;99.90;;;;;;4976508;28;20109;-79
2021/12/21 02:54:07;;;;;;;18.35;8.68;;;-2.80;99.90;;;;;;4975873;28;20049;-79
2021/12/21 02:56:34;;;;;;;20.08;9.02;;;-2.80;99.90;;;;;;4958851;28;20117;-78
2021/12/21 02:58:59;;;;;;;19.02;8.75;;;-2.90;99.90;;;;;;4959640;28;20045;-80
2021/12/21 03:01:29;;;;;;;16.65;9.35;;;-3.00;99.90;;;;;;4976299;28;20033;-79
2021/12/21 03:03:56;;;;;;;19.60;9.23;;;-2.90;99.90;;;;;;4958946;28;20349;-79
2021/12/21 03:14:32;;;;;;;20.70;9.60;;;-3.00;99.90;;;;;;4975552;28;20058;-79
2021/12/21 03:16:58;;;;;;;18.98;10.02;;;-3.00;99.90;;;;;;4976161;28;20095;-80
2021/12/21 03:19:23;;;;;;;21.45;9.73;;;-2.90;99.90;;;;;;4989832;28;20152;-77
2021/12/21 03:21:55;;;;;;;21.83;9.38;;;-3.00;99.90;;;;;;4991738;28;20126;-79
2021/12/21 03:24:23;;;;;;;18.35;10.05;;;-3.00;99.90;;;;;;4991241;28;20074;-78
2021/12/21 03:26:50;;;;;;;21.90;10.40;;;-3.00;99.90;;;;;;4958925;28;20035;-80
2021/12/21 03:29:16;;;;;;;24.33;8.95;;;-3.00;99.90;;;;;;4975330;28;20076;-78
2021/12/21 03:31:42;;;;;;;21.80;10.60;;;-3.00;99.90;;;;;;4991021;28;20054;-78
2021/12/21 03:34:11;;;;;;;21.48;10.05;;;-3.00;99.90;;;;;;4974015;28;20031;-79
2021/12/21 03:36:38;;;;;;;20.08;9.30;;;-3.00;99.90;;;;;;4958458;28;20088;-78
2021/12/21 03:39:07;;;;;;;16.70;7.50;;;-3.00;99.90;;;;;;4975930;28;20023;-79
2021/12/21 03:41:38;;;;;;;24.27;9.85;;;-3.00;99.90;;;;;;4975837;28;20015;-78
2021/12/21 03:44:04;;;;;;;20.08;9.82;;;-3.00;99.90;;;;;;4991120;28;20321;-77
2021/12/21 03:46:44;;;;;;;19.88;9.25;;;-3.00;99.90;;;;;;4990696;28;20034;-77
2021/12/21 03:49:51;;;;;;;22.60;9.27;;;-2.90;99.90;;;;;;4976203;28;20042;-79
2021/12/21 03:51:56;;;;;;;20.48;9.07;;;-2.90;99.90;;;;;;4975781;28;20023;-77
2021/12/21 03:54:22;;;;;;;23.73;10.23;;;-3.00;99.90;;;;;;4974960;28;20038;-78
2021/12/21 03:56:50;;;;;;;20.42;9.77;;;-3.10;99.90;;;;;;4974999;28;20038;-79
2021/12/21 03:59:17;;;;;;;19.20;9.52;;;-3.10;99.90;;;;;;4990584;28;20034;-79
2021/12/21 04:01:43;;;;;;;20.92;9.50;;;-3.10;99.90;;;;;;4976097;28;20019;-80
2021/12/21 04:04:12;;;;;;;27.75;10.38;;;-3.10;99.90;;;;;;4976642;28;20026;-81
2021/12/21 04:06:40;;;;;;;23.38;10.05;;;-3.10;99.90;;;;;;4960045;28;20060;-79
2021/12/21 04:09:06;;;;;;;;;;;-3.10;99.90;;;;;;4960468;28;20321;-78
2021/12/21 04:11:33;;;;;;;21.70;10.23;;;-3.10;99.90;;;;;;4959695;28;19914;-79
2021/12/21 04:13:59;;;;;;;18.27;9.65;;;-3.10;99.90;;;;;;4992116;28;20058;-79
2021/12/21 04:16:25;;;;;;;18.00;9.70;;;-3.10;99.90;;;;;;4975963;28;20042;-81
2021/12/21 04:18:51;;;;;;;18.13;9.48;;;-3.10;99.90;;;;;;4959375;28;20250;-78
2021/12/21 04:21:17;;;;;;;21.15;9.40;;;-3.20;99.90;;;;;;4958945;28;20076;-77
2021/12/21 04:23:44;;;;;;;23.75;9.95;;;-3.30;99.90;;;;;;4943570;28;20106;-78
2021/12/21 04:26:11;;;;;;;18.65;9.60;;;-3.30;99.90;;;;;;4976568;28;20061;-79
2021/12/21 04:28:38;;;;;;;18.77;9.10;;;-3.30;99.90;;;;;;4959235;28;20035;-80
2021/12/21 04:31:05;;;;;;;19.73;8.88;;;-3.40;99.90;;;;;;4976353;28;20030;-80
2021/12/21 04:33:33;;;;;;;21.63;9.30;;;-3.40;99.90;;;;;;4976532;28;20062;-80
2021/12/21 04:35:59;;;;;;;20.05;8.98;;;-3.40;99.90;;;;;;4959569;28;20079;-79
2021/12/21 04:38:30;;;;;;;18.25;9.23;;;-3.40;99.90;;;;;;4979355;28;20023;-79
2021/12/21 04:41:07;;;;;;;21.45;9.32;;;-3.40;99.90;;;;;;4994929;28;20045;-78
2021/12/21 04:43:33;;;;;;;21.40;9.85;;;-3.40;99.90;;;;;;4980349;28;20305;-79
2021/12/21 04:46:03;;;;;;;17.25;9.45;;;-3.40;99.90;;;;;;4988857;28;20038;-80
2021/12/21 04:48:29;;;;;;;20.60;9.95;;;-3.30;99.90;;;;;;4971876;28;20018;-78
2021/12/21 04:50:56;;;;;;;18.20;9.05;;;-3.40;99.90;;;;;;4984522;28;20027;-80
2021/12/21 04:53:22;;;;;;;17.80;8.85;;;-3.40;99.90;;;;;;4980869;28;20049;-80
2021/12/21 04:55:48;;;;;;;17.10;8.73;;;-3.40;99.90;;;;;;4990661;28;20228;-79
2021/12/21 04:58:14;;;;;;;20.15;8.32;;;-3.40;99.90;;;;;;4990719;28;20039;-78
2021/12/21 05:00:41;;;;;;;15.43;8.32;;;-3.50;99.90;;;;;;4975936;28;20026;-78
2021/12/21 05:03:07;;;;;;;21.27;9.00;;;-3.40;99.90;;;;;;4958458;28;20047;-80
2021/12/21 05:05:33;;;;;;;17.35;9.38;;;-3.40;99.90;;;;;;4974488;28;20225;-78
2021/12/21 05:08:19;;;;;;;17.83;8.95;;;-3.50;99.90;;;;;;4943283;28;20030;-79
2021/12/21 05:13:14;;;;;;;21.83;8.93;;;-3.70;99.90;;;;;;4978370;28;20308;-77
2021/12/21 05:15:40;;;;;;;18.58;8.60;;;-3.70;99.90;;;;;;4993991;28;20061;-77
2021/12/21 05:18:06;;;;;;;20.25;8.38;;;-3.70;99.90;;;;;;4994068;28;20371;-79
2021/12/21 05:20:32;;;;;;;18.42;7.85;;;-3.80;99.90;;;;;;4978278;28;20159;-78
2021/12/21 05:22:58;;;;;;;17.40;7.82;;;-3.70;99.90;;;;;;4978958;28;20252;-79
2021/12/21 05:25:24;;;;;;;17.80;8.05;;;-3.70;99.90;;;;;;4961800;28;20022;-79
2021/12/21 05:27:50;;;;;;;14.25;7.10;;;-3.70;99.90;;;;;;4978912;28;20494;-78
2021/12/21 05:30:16;;;;;;;15.50;7.10;;;-3.70;99.90;;;;;;4978352;28;20108;-78
2021/12/21 05:32:42;;;;;;;13.27;7.05;;;-3.80;99.90;;;;;;4993511;28;20011;-78
2021/12/21 05:35:09;;;;;;;14.75;6.82;;;-3.60;99.90;;;;;;4993925;28;20027;-80
2021/12/21 05:37:37;;;;;;;19.73;8.52;;;-3.70;99.90;;;;;;4977011;28;20031;-79
2021/12/21 05:40:13;;;;;;;14.88;7.90;;;-3.70;99.90;;;;;;4978523;28;20073;-81
2021/12/21 05:42:41;;;;;;;19.50;8.63;;;-3.70;99.90;;;;;;4993607;28;20053;-80
2021/12/21 05:45:08;;;;;;;16.65;7.57;;;-3.70;99.90;;;;;;4978592;28;20095;-81
2021/12/21 05:47:35;;;;;;;15.00;7.57;;;-3.80;99.90;;;;;;4978467;28;20171;-79
2021/12/21 05:50:01;;;;;;;20.15;8.25;;;-3.90;99.90;;;;;;4978667;28;20306;-82
2021/12/21 05:52:27;;;;;;;14.52;7.55;;;-4.00;99.90;;;;;;4977954;28;20039;-82
2021/12/21 05:54:53;;;;;;;15.48;7.28;;;-3.90;99.90;;;;;;4960959;28;20039;-81
2021/12/21 05:57:18;;;;;;;14.18;7.03;;;-3.90;99.90;;;;;;4977483;28;20023;-81
2021/12/21 05:59:44;;;;;;;16.48;7.47;;;-3.90;99.90;;;;;;4961278;28;20225;-80
2021/12/21 06:02:10;;;;;;;15.57;7.32;;;-4.00;99.90;;;;;;4983235;28;20033;-80
2021/12/21 06:04:36;;;;;;;15.93;7.75;;;-4.10;99.90;;;;;;4993585;28;20478;-81
2021/12/21 06:07:02;;;;;;;16.20;7.28;;;-4.10;99.90;;;;;;5042013;28;20370;-79
2021/12/21 06:09:29;;;;;;;16.92;7.20;;;-4.10;99.90;;;;;;5051468;28;20108;-79
2021/12/21 06:15:16;;;;;;;15.10;7.45;;;-4.20;99.90;;;;;;4980193;28;20074;-82
2021/12/21 06:26:14;;;;;;;15.30;7.25;;;-4.20;99.90;;;;;;4958518;28;20023;-77
2021/12/21 06:28:42;;;;;;;14.38;7.45;;;-4.20;99.90;;;;;;4959527;29;20026;-80
2021/12/21 06:31:10;;;;;;;22.17;8.30;;;-4.30;99.90;;;;;;4959742;28;20039;-79
2021/12/21 06:33:36;;;;;;;16.40;7.72;;;-4.30;99.90;;;;;;4942161;29;20233;-79
2021/12/21 06:36:03;;;;;;;17.90;8.40;;;-4.40;99.90;;;;;;5012561;28;20040;-78
2021/12/21 06:38:29;;;;;;;14.10;7.05;;;-4.30;99.90;;;;;;5078309;28;20256;-79
2021/12/21 06:40:56;;;;;;;16.80;7.45;;;-4.30;99.90;;;;;;5081263;28;20031;-80
2021/12/21 06:43:22;;;;;;;16.65;8.57;;;-4.30;99.90;;;;;;5061993;28;20051;-78
2021/12/21 06:51:17;;;;;;;17.55;8.80;;;-4.30;99.90;;;;;;5021503;28;20396;-79
2021/12/21 06:53:47;;;;;;;18.20;8.02;;;-4.20;99.90;;;;;;5062582;28;20028;-79
2021/12/21 06:56:14;;;;;;;17.65;8.65;;;-4.20;99.90;;;;;;5084588;28;20078;-79
2021/12/21 06:58:40;;;;;;;15.70;7.80;;;-4.20;99.90;;;;;;5077614;28;20071;-79
2021/12/21 07:01:07;;;;;;;16.42;9.45;;;-4.30;99.90;;;;;;5075666;28;20230;-78
2021/12/21 07:03:33;;;;;;;19.23;8.52;;;-4.30;99.90;;;;;;4977898;28;20092;-80
2021/12/21 07:06:04;;;;;;;20.02;9.38;;;-4.30;99.90;;;;;;4989513;28;20029;-79
2021/12/21 07:09:05;;;;;;;16.02;8.82;;;-4.40;99.90;;;;;;5027800;28;20048;-81
2021/12/21 07:19:28;;;;;;;19.83;8.60;;;-4.30;99.90;;;;;;5034540;28;20029;-79
2021/12/21 07:21:54;;;;;;;20.20;9.13;;;-4.30;99.90;;;;;;4960060;28;20022;-79
2021/12/21 07:24:20;;;;;;;20.00;9.07;;;-4.30;99.90;;;;;;5043535;28;20044;-79
2021/12/21 07:26:48;;;;;;;18.30;8.82;;;-4.20;99.90;;;;;;5079700;28;20032;-79
2021/12/21 07:29:14;;;;;;;21.58;8.65;;;-4.20;99.90;;;;;;5078052;28;20025;-79
2021/12/21 07:31:40;;;;;;;24.05;8.68;;;-4.20;99.90;;;;;;5059495;28;20032;-79
2021/12/21 07:34:06;;;;;;;21.55;9.18;;;-4.10;99.90;;;;;;5021574;28;20064;-79
2021/12/21 07:36:32;;;;;;;18.45;7.97;;;-4.10;99.90;;;;;;4960089;28;20046;-81
2021/12/21 07:38:59;;;;;;;19.80;9.13;;;-4.00;99.90;;;;;;4977892;28;20023;-81
2021/12/21 07:41:25;;;;;;;19.27;8.75;;;-4.00;99.90;;;;;;4977524;28;20038;-80
2021/12/21 07:43:51;;;;;;;25.48;9.80;;;-4.00;99.90;;;;;;4961275;28;20023;-79
2021/12/21 07:46:17;;;;;;;18.83;9.70;;;-3.90;99.90;;;;;;4960096;28;20062;-79
2021/12/21 07:48:43;;;;;;;19.38;9.43;;;-3.90;99.90;;;;;;4960208;28;20031;-78
2021/12/21 07:51:10;;;;;;;18.08;8.88;;;-3.90;99.90;;;;;;4980532;28;20216;-78
2021/12/21 07:53:47;;;;;;;21.27;9.70;;;-3.90;99.90;;;;;;4976779;28;20031;-78
2021/12/21 07:56:16;;;;;;;21.88;10.40;;;-3.90;99.90;;;;;;4989885;28;20053;-79
2021/12/21 07:58:44;;;;;;;26.30;9.98;;;-3.90;99.90;;;;;;4983790;28;20023;-80
2021/12/21 08:01:11;;;;;;;26.73;9.80;;;-3.80;99.90;;;;;;4970111;28;20027;-80
2021/12/21 08:03:37;;;;;;;20.65;9.60;;;-3.70;99.90;;;;;;4979659;28;20091;-80
2021/12/21 08:06:08;;;;;;;28.48;9.20;;;-3.70;99.90;;;;;;4973414;28;20033;-80
2021/12/21 08:08:40;;;;;;;22.20;8.82;;;-3.60;99.90;;;;;;4983122;28;20051;-81
2021/12/21 08:12:10;;;;;;;15.98;8.73;;;-3.50;99.90;;;;;;4965234;28;20027;-81
2021/12/21 08:14:01;;;;;;;24.35;9.70;;;-3.40;99.90;;;;;;4956653;28;20114;-79
2021/12/21 08:17:08;;;;;;;19.75;8.88;;;-3.30;99.90;;;;;;4956217;28;20043;-79
2021/12/21 08:19:38;;;;;;;;;;;-3.10;99.90;;;;;;4960871;29;20058;-81
2021/12/21 08:22:14;;;;;;;17.55;8.65;;;-3.00;99.90;;;;;;4975296;28;19906;-80
2021/12/21 08:24:46;;;;;;;19.15;8.63;;;-2.90;99.90;;;;;;4957893;28;20110;-80
2021/12/21 08:27:15;;;;;;;20.25;8.98;;;-2.80;99.90;;;;;;4956792;28;20298;-81
2021/12/21 08:30:07;;;;;;;26.85;9.40;;;-2.70;99.90;;;;;;4953052;28;20085;-79
2021/12/21 08:32:46;;;;;;;25.85;10.05;;;-2.70;99.90;;;;;;4958203;28;20245;-78
2021/12/21 08:35:16;;;;;;;22.83;9.45;;;-2.60;99.90;;;;;;4956220;28;20187;-80
2021/12/21 08:37:49;;;;;;;21.65;9.73;;;-2.50;99.90;;;;;;4988336;28;20151;-78
2021/12/21 08:40:36;;;;;;;18.30;9.77;;;-2.40;99.90;;;;;;4957150;29;20031;-82
2021/12/21 08:43:03;;;;;;;21.23;9.90;;;-2.30;99.90;;;;;;4972670;28;20027;-80
2021/12/21 08:45:31;;;;;;;19.00;9.07;;;-2.20;99.90;;;;;;4987821;28;20032;-79
2021/12/21 08:47:59;;;;;;;17.55;10.00;;;-2.20;99.90;;;;;;4959195;28;20372;-79
2021/12/21 08:50:25;;;;;;;15.13;9.03;;;-2.20;99.90;;;;;;4972821;28;20031;-79
2021/12/21 08:52:51;;;;;;;21.85;9.60;;;-2.20;99.90;;;;;;4957531;28;20023;-78
2021/12/21 08:55:18;;;;;;;15.80;9.02;;;-2.10;99.90;;;;;;4955609;29;20042;-79
2021/12/21 08:57:47;;;;;;;18.33;9.35;;;-2.00;99.90;;;;;;4954817;28;20383;-79
2021/12/21 09:00:13;;;;;;;15.68;8.27;;;-2.00;99.90;;;;;;4953169;28;20353;-80
2021/12/21 09:02:39;;;;;;;20.55;9.80;;;-1.90;99.90;;;;;;4938022;28;20105;-77
2021/12/21 09:05:11;;;;;;;20.17;8.95;;;-1.90;99.90;;;;;;4969395;28;20322;-80
2021/12/21 09:07:47;;;;;;;21.40;10.05;;;-1.90;99.90;;;;;;4956593;28;20035;-79
2021/12/21 09:10:18;;;;;;;20.88;9.98;;;-1.90;99.90;;;;;;4966616;28;20035;-80
2021/12/21 09:12:47;;;;;;;21.77;9.15;;;-1.80;99.90;;;;;;4955575;29;20096;-82
2021/12/21 09:15:38;;;;;;;20.10;10.55;;;-1.70;99.90;;;;;;4939225;28;20075;-79
2021/12/21 09:18:05;;;;;;;18.95;9.40;;;-1.60;99.90;;;;;;4918373;29;20037;-80
2021/12/21 09:20:32;;;;;;;18.85;10.32;;;-1.60;99.90;;;;;;4918994;29;20230;-80
2021/12/21 09:22:59;;;;;;;20.60;9.65;;;-1.60;99.90;;;;;;4938920;29;20015;-81
2021/12/21 09:25:26;;;;;;;18.58;9.18;;;-1.60;99.90;;;;;;4941982;29;20090;-81
2021/12/21 09:28:00;;;;;;;21.33;10.60;;;-1.50;99.90;;;;;;4947463;28;20029;-81
2021/12/21 09:30:30;;;;;;;19.63;10.48;;;-1.40;99.90;;;;;;4948108;28;20353;-80
2021/12/21 09:32:59;;;;;;;21.92;9.93;;;-1.30;99.90;;;;;;4992759;28;20027;-80
2021/12/21 09:35:26;;;;;;;22.35;9.30;;;-1.20;99.90;;;;;;5011738;28;20103;-79
2021/12/21 09:37:53;;;;;;;20.63;10.00;;;-1.10;99.90;;;;;;5034695;28;20045;-79
2021/12/21 09:40:25;;;;;;;23.67;10.32;;;-1.10;99.90;;;;;;5018929;28;20172;-81
2021/12/21 09:42:52;;;;;;;21.00;10.50;;;-1.10;99.90;;;;;;5035639;28;20313;-80
2021/12/21 09:45:19;;;;;;;19.13;10.23;;;-1.00;99.90;;;;;;5019230;28;20041;-81
2021/12/21 09:47:45;;;;;;;25.55;10.85;;;-0.90;99.90;;;;;;5032924;28;20045;-80
2021/12/21 09:50:13;;;;;;;17.25;9.82;;;-0.80;99.90;;;;;;5021481;28;20043;-80
2021/12/21 09:52:39;;;;;;;18.58;10.35;;;-0.70;99.90;;;;;;5025423;28;20103;-81
2021/12/21 09:55:12;;;;;;;18.83;10.00;;;-0.70;99.90;;;;;;4987413;28;20031;-80
2021/12/21 09:57:39;;;;;;;19.40;10.07;;;-0.70;99.90;;;;;;4981905;28;20051;-78
2021/12/21 10:00:14;;;;;;;17.23;9.52;;;-0.60;99.90;;;;;;4959235;28;20367;-79
2021/12/21 10:02:40;;;;;;;16.65;9.55;;;-0.50;99.90;;;;;;4968018;28;20242;-81
2021/12/21 10:05:10;;;;;;;18.73;9.80;;;-0.30;99.90;;;;;;5040001;28;20140;-80
2021/12/21 10:07:36;;;;;;;19.70;9.15;;;-0.20;99.90;;;;;;5039655;28;20052;-79
2021/12/21 10:10:21;;;;;;;17.75;9.73;;;-0.10;99.90;;;;;;4955700;28;20241;-80
2021/12/21 10:12:47;;;;;;;19.95;9.32;;;0.00;99.90;;;;;;4940392;29;20062;-80
2021/12/21 10:15:20;;;;;;;22.00;11.00;;;0.10;99.90;;;;;;5047515;28;20230;-80
2021/12/21 10:18:05;;;;;;;18.35;10.68;;;0.10;99.90;;;;;;5012952;28;20046;-80
2021/12/21 10:20:51;;;;;;;17.80;9.60;;;0.20;99.90;;;;;;4979436;28;20027;-82
2021/12/21 10:23:32;;;;;;;16.30;8.85;;;0.30;99.90;;;;;;4978915;28;20041;-82
2021/12/21 10:26:01;;;;;;;18.65;8.98;;;0.40;99.90;;;;;;4962195;28;20259;-81
2021/12/21 10:28:48;;;;;;;17.15;9.48;;;0.50;99.90;;;;;;4979035;28;20067;-80
2021/12/21 10:31:32;;;;;;;13.73;7.88;;;0.60;99.90;;;;;;4985724;28;20172;-81
2021/12/21 10:34:04;;;;;;;18.38;8.02;;;0.80;99.90;;;;;;4967159;28;20031;-81
2021/12/21 10:36:30;;;;;;;14.93;8.25;;;1.00;99.90;;;;;;4993366;28;20109;-82
2021/12/21 10:38:59;;;;;;;19.08;8.77;;;1.30;99.90;;;;;;4978989;28;20037;-79
2021/12/21 10:41:34;;;;;;;;;;;1.70;99.90;;;;;;4960692;28;20015;-81
2021/12/21 10:44:12;;;;;;;15.93;8.05;;;2.20;99.90;;;;;;4958548;28;19906;-79
2021/12/21 10:46:41;;;;;;;12.63;7.70;;;2.70;99.90;;;;;;4980976;28;20046;-82
2021/12/21 10:49:17;;;;;;;14.15;8.02;;;3.30;99.90;;;;;;4961958;28;20042;-79
2021/12/21 10:51:53;;;;;;;21.15;9.85;;;3.80;99.90;;;;;;4978354;28;20050;-80
2021/12/21 10:54:32;;;;;;;14.63;8.02;;;4.50;99.90;;;;;;4977520;28;20035;-79
2021/12/21 10:57:02;;;;;;;14.57;7.85;;;4.90;99.90;;;;;;4979686;28;20041;-79
2021/12/21 10:59:31;;;;;;;10.35;5.85;;;5.30;99.90;;;;;;4969021;28;20035;-79
2021/12/21 11:02:10;;;;;;;9.65;4.82;;;5.40;99.90;;;;;;4976013;28;20214;-80
2021/12/21 11:04:46;;;;;;;11.05;4.95;;;5.90;99.90;;;;;;4969876;28;20200;-79
2021/12/21 11:07:38;;;;;;;14.35;5.72;;;6.50;99.90;;;;;;4976356;28;20038;-81
2021/12/21 11:10:10;;;;;;;11.40;6.00;;;7.00;99.90;;;;;;4978644;28;20093;-79
2021/12/21 11:12:51;;;;;;;9.25;5.00;;;7.80;99.90;;;;;;4960314;28;20026;-79
2021/12/21 11:15:19;;;;;;;9.30;5.10;;;8.40;99.90;;;;;;5027440;28;20072;-79
2021/12/21 11:17:46;;;;;;;10.85;5.18;;;8.80;99.90;;;;;;5077129;28;20028;-79
2021/12/21 11:20:15;;;;;;;9.52;4.60;;;9.00;99.90;;;;;;5061222;28;20035;-79
2021/12/21 11:22:43;;;;;;;7.53;4.47;;;9.20;99.90;;;;;;5061110;28;20196;-79
2021/12/21 11:25:11;;;;;;;9.05;4.80;;;9.30;99.90;;;;;;5040744;28;20023;-80
2021/12/21 11:27:40;;;;;;;9.80;4.47;;;9.90;99.90;;;;;;4975669;28;20038;-80
2021/12/21 11:30:10;;;;;;;8.00;4.20;;;10.30;98.70;;;;;;4960115;28;20023;-80
2021/12/21 11:32:49;;;;;;;7.90;4.00;;;10.30;97.10;;;;;;4976626;28;20068;-79
2021/12/21 11:37:48;;;;;;;7.60;4.03;;;10.50;97.20;;;;;;4989553;28;19925;-79
2021/12/21 11:40:20;;;;;;;8.05;3.83;;;11.20;95.70;;;;;;5005273;28;20037;-78
2021/12/21 11:42:52;;;;;;;7.63;3.70;;;11.30;94.50;;;;;;4978844;28;20324;-79
2021/12/21 11:45:23;;;;;;;7.60;4.10;;;11.40;94.30;;;;;;4959924;28;20034;-79
2021/12/21 11:48:22;;;;;;;9.25;4.22;;;11.40;93.60;;;;;;4981961;28;20031;-80
2021/12/21 11:50:49;;;;;;;7.63;3.83;;;11.50;93.40;;;;;;4957190;29;20332;-78
2021/12/21 11:53:17;;;;;;;6.30;3.58;;;11.60;93.20;;;;;;4957701;29;20030;-78
2021/12/21 11:55:49;;;;;;;7.70;3.33;;;11.60;93.30;;;;;;4956724;29;20505;-78
2021/12/21 11:58:17;;;;;;;8.82;3.58;;;12.50;92.00;;;;;;4957001;28;20305;-78
2021/12/21 12:00:53;;;;;;;7.22;3.45;;;13.20;90.90;;;;;;4956914;28;20034;-78
2021/12/21 12:03:23;;;;;;;6.80;3.20;;;13.20;90.60;;;;;;5023276;28;20092;-78
2021/12/21 12:06:02;;;;;;;8.30;3.53;;;13.50;90.10;;;;;;5036666;28;20193;-79
2021/12/21 12:08:54;;;;;;;7.32;2.92;;;13.70;89.00;;;;;;4976259;28;20023;-79
2021/12/21 12:11:35;;;;;;;6.15;2.90;;;14.60;88.10;;;;;;5053094;28;20020;-78
2021/12/21 12:14:22;;;;;;;6.22;3.10;;;14.40;86.10;;;;;;5057087;28;20047;-78
2021/12/21 12:16:52;;;;;;;6.38;3.00;;;14.50;84.30;;;;;;4993466;28;20050;-77
2021/12/21 12:19:43;;;;;;;7.15;3.00;;;15.00;85.70;;;;;;5048021;28;20031;-79
2021/12/21 12:22:13;;;;;;;6.82;2.58;;;15.40;83.60;;;;;;5078100;28;20036;-79
2021/12/21 12:24:55;;;;;;;7.35;3.03;;;15.10;81.80;;;;;;5078495;28;20052;-79
2021/12/21 12:27:24;;;;;;;5.65;2.60;;;14.60;82.70;;;;;;5076785;28;20047;-79
2021/12/21 12:29:59;;;;;;;7.05;2.58;;;14.70;82.60;;;;;;5076459;28;20184;-79
2021/12/21 12:32:43;;;;;;;7.18;2.83;;;14.80;82.00;;;;;;5076470;28;20039;-79
2021/12/21 12:35:20;;;;;;;7.32;3.33;;;15.30;80.30;;;;;;5076155;28;20071;-79
2021/12/21 12:38:03;;;;;;;5.78;2.40;;;15.60;79.50;;;;;;4956566;28;20198;-79
2021/12/21 12:40:36;;;;;;;7.15;2.47;;;15.50;78.00;;;;;;4955119;28;20225;-80
2021/12/21 12:43:04;;;;;;;7.78;2.80;;;14.30;79.70;;;;;;4955519;29;20233;-79
2021/12/21 12:45:39;;;;;;;7.50;2.63;;;14.00;80.50;;;;;;4939265;29;20046;-78
2021/12/21 12:48:29;;;;;;;6.75;2.75;;;13.90;81.10;;;;;;4955354;29;20054;-79
2021/12/21 12:51:04;;;;;;;7.72;2.08;;;14.30;81.00;;;;;;4957152;28;20341;-76
2021/12/21 12:53:39;;;;;;;6.70;2.53;;;13.30;80.60;;;;;;4956805;28;20046;-79
2021/12/21 12:56:06;;;;;;;5.40;2.47;;;12.00;83.40;;;;;;4955597;29;20043;-78
2021/12/21 12:58:35;;;;;;;4.85;2.03;;;11.80;85.40;;;;;;4974229;28;20075;-77
2021/12/21 13:01:10;;;;;;;6.93;2.72;;;11.40;85.50;;;;;;4974157;28;20065;-79
2021/12/21 13:03:42;;;;;;;4.70;2.10;;;11.20;86.80;;;;;;4974895;28;20270;-76
2021/12/21 13:06:18;;;;;;;4.82;2.45;;;10.80;86.20;;;;;;4957237;28;20046;-78
2021/12/21 13:08:45;;;;;;;4.80;2.50;;;10.80;87.10;;;;;;4973943;28;20367;-79
2021/12/21 13:11:12;;;;;;;7.05;2.20;;;10.80;87.20;;;;;;4974304;28;20013;-80
2021/12/21 13:13:42;;;;;;;5.50;1.95;;;10.50;87.70;;;;;;4961170;28;20055;-80
2021/12/21 13:16:17;;;;;;;7.57;3.00;;;10.20;88.10;;;;;;5075579;28;20041;-80
2021/12/21 13:18:44;;;;;;;8.93;3.03;;;10.20;88.90;;;;;;5075679;28;20036;-78
2021/12/21 13:21:29;;;;;;;6.00;2.65;;;9.90;89.80;;;;;;5074331;28;20040;-79
2021/12/21 13:24:11;;;;;;;5.15;2.75;;;9.10;90.20;;;;;;5075127;28;20054;-78
2021/12/21 13:26:48;;;;;;;7.78;1.90;;;8.30;91.00;;;;;;5068246;28;20456;-79
2021/12/21 13:29:18;;;;;;;6.10;2.28;;;8.20;91.80;;;;;;5056827;28;20029;-79
2021/12/21 13:32:08;;;;;;;6.65;2.13;;;8.10;91.70;;;;;;5058470;28;20060;-79
2021/12/21 13:34:34;;;;;;;6.30;2.40;;;7.60;93.00;;;;;;5059356;28;20108;-79
2021/12/21 13:37:03;;;;;;;7.25;2.10;;;7.40;93.30;;;;;;5075305;28;20042;-78
2021/12/21 13:39:56;;;;;;;7.32;2.70;;;7.70;93.40;;;;;;5058905;28;20063;-78
2021/12/21 13:42:31;;;;;;;5.60;2.50;;;8.10;93.30;;;;;;5060037;28;20131;-78
2021/12/21 13:45:01;;;;;;;5.32;2.30;;;8.10;92.60;;;;;;5058836;28;20025;-79
2021/12/21 13:47:33;;;;;;;6.93;2.60;;;8.00;93.20;;;;;;5060169;28;20045;-80
2021/12/21 13:50:10;;;;;;;5.43;2.42;;;8.50;93.70;;;;;;5058493;28;20032;-79
2021/12/21 13:52:42;;;;;;;6.47;2.88;;;9.20;92.00;;;;;;5058904;28;20060;-78
2021/12/21 13:55:38;;;;;;;7.35;3.30;;;9.30;91.70;;;;;;5058157;28;20044;-78
2021/12/21 13:58:11;;;;;;;6.95;3.13;;;8.80;92.30;;;;;;5047976;28;20060;-80
2021/12/21 14:00:43;;;;;;;6.72;3.30;;;8.50;93.80;;;;;;5058205;28;20037;-80
2021/12/21 14:05:54;;;;;;;6.57;3.28;;;8.50;94.10;;;;;;5051795;28;20106;-78
2021/12/21 14:08:21;;;;;;;10.40;3.67;;;9.30;93.50;;;;;;5063330;28;20263;-80
2021/12/21 14:10:50;;;;;;;7.93;3.40;;;9.40;92.70;;;;;;5067292;28;20268;-81
2021/12/21 14:13:26;;;;;;;9.25;3.28;;;9.00;93.30;;;;;;5081756;28;20040;-80
2021/12/21 14:15:52;;;;;;;7.85;3.88;;;7.90;94.30;;;;;;5062879;28;20068;-80
2021/12/21 14:18:34;;;;;;;8.75;3.60;;;6.90;96.10;;;;;;5065192;28;20037;-79